Time;durP1;ratioP1;P1;durP2;ratioP2;P2;SDS_P1;SDS_P2;PMS_P1;PMS_P2;Temp;Humidity;BMP_temperature;BMP_pressure;BME280_temperature;BME280_humidity;BME280_pressure;Samples;Min_cycle;Max_cycle;Signal;HPM_P1;HPM_P2
2024/01/17 00:00:09;;;;;;;2.80;1.20;;;;;;;;;;5130291;27;20104;-69
2024/01/17 00:02:36;;;;;;;2.10;1.20;;;;;;;;;;5130098;27;20046;-70
2024/01/17 00:05:03;;;;;;;2.15;1.10;;;;;;;;;;5129846;27;20516;-70
2024/01/17 00:07:30;;;;;;;2.65;1.10;;;;;;;;;;5130290;27;20040;-69
2024/01/17 00:09:57;;;;;;;1.85;0.98;;;;;;;;;;5129463;27;20057;-69
2024/01/17 00:12:24;;;;;;;1.80;1.02;;;;;;;;;;5129882;27;20524;-69
2024/01/17 00:14:51;;;;;;;2.05;1.00;;;;;;;;;;5130009;27;20054;-69
2024/01/17 00:17:17;;;;;;;3.60;1.25;;;;;;;;;;5129554;27;20043;-70
2024/01/17 00:19:45;;;;;;;1.58;1.00;;;;;;;;;;5130189;27;20051;-69
2024/01/17 00:22:15;;;;;;;1.45;1.00;;;;;;;;;;5129796;27;20058;-71
2024/01/17 00:24:41;;;;;;;1.80;1.02;;;;;;;;;;5129563;27;20533;-70
2024/01/17 00:27:08;;;;;;;1.60;1.10;;;;;;;;;;5129874;27;20051;-70
2024/01/17 00:29:36;;;;;;;1.70;1.10;;;;;;;;;;5130049;27;20043;-70
2024/01/17 00:32:02;;;;;;;2.42;1.10;;;;;;;;;;5129771;27;20047;-69
2024/01/17 00:34:29;;;;;;;2.53;0.90;;;;;;;;;;5129768;27;20043;-70
2024/01/17 00:36:56;;;;;;;1.80;1.00;;;;;;;;;;5129321;28;20049;-69
2024/01/17 00:39:23;;;;;;;1.60;1.02;;;;;;;;;;5129571;28;20043;-69
2024/01/17 00:41:49;;;;;;;2.45;1.05;;;;;;;;;;5129562;28;20435;-71
2024/01/17 00:44:18;;;;;;;2.10;0.90;;;;;;;;;;5129941;27;20122;-71
2024/01/17 00:46:45;;;;;;;2.38;1.30;;;;;;;;;;5133692;27;20043;-71
2024/01/17 00:49:12;;;;;;;2.05;1.13;;;;;;;;;;5134031;27;20059;-68
2024/01/17 00:51:38;;;;;;;2.17;1.10;;;;;;;;;;5133878;27;20092;-70
2024/01/17 00:54:05;;;;;;;1.92;1.10;;;;;;;;;;5133449;27;20039;-69
2024/01/17 00:56:34;;;;;;;2.33;1.30;;;;;;;;;;5133327;27;20043;-69
2024/01/17 00:59:00;;;;;;;3.05;1.35;;;;;;;;;;5133988;27;20046;-70
2024/01/17 01:01:27;;;;;;;2.33;1.30;;;;;;;;;;5133683;27;20090;-69
2024/01/17 01:03:54;;;;;;;2.63;1.20;;;;;;;;;;5133541;27;20452;-69
2024/01/17 01:06:21;;;;;;;4.38;1.30;;;;;;;;;;5115477;27;20116;-69
2024/01/17 01:08:48;;;;;;;2.22;1.27;;;;;;;;;;5133623;27;20253;-69
2024/01/17 01:11:15;;;;;;;3.60;1.63;;;;;;;;;;5132800;27;20134;-70
2024/01/17 01:13:42;;;;;;;2.95;1.50;;;;;;;;;;5133180;27;20103;-69
2024/01/17 01:16:10;;;;;;;2.33;1.40;;;;;;;;;;5133211;27;20043;-69
2024/01/17 01:18:37;;;;;;;4.78;1.98;;;;;;;;;;5133083;27;20055;-71
2024/01/17 01:21:04;;;;;;;5.10;2.40;;;;;;;;;;5133279;27;20499;-69
2024/01/17 01:23:31;;;;;;;4.80;2.15;;;;;;;;;;5133462;27;20047;-69
2024/01/17 01:25:57;;;;;;;4.25;1.90;;;;;;;;;;5132815;27;20109;-70
2024/01/17 01:28:24;;;;;;;5.38;2.45;;;;;;;;;;5133204;27;20760;-69
2024/01/17 01:30:51;;;;;;;4.35;2.42;;;;;;;;;;5133248;27;20039;-71
2024/01/17 01:33:18;;;;;;;5.57;2.60;;;;;;;;;;5132626;27;20073;-70
2024/01/17 01:35:45;;;;;;;4.70;2.50;;;;;;;;;;5132681;27;20122;-70
2024/01/17 01:38:12;;;;;;;6.00;2.70;;;;;;;;;;5132918;27;20043;-71
2024/01/17 01:40:39;;;;;;;4.43;2.30;;;;;;;;;;5114549;27;20134;-70
2024/01/17 01:43:26;;;;;;;3.95;2.20;;;;;;;;;;5133061;27;20142;-69
2024/01/17 01:46:04;;;;;;;3.50;2.13;;;;;;;;;;5132520;27;20047;-69
2024/01/17 01:48:31;;;;;;;3.42;1.90;;;;;;;;;;5133000;27;20043;-69
2024/01/17 01:50:58;;;;;;;3.22;1.90;;;;;;;;;;5132808;27;20075;-69
2024/01/17 01:53:28;;;;;;;3.55;2.15;;;;;;;;;;5132470;27;20131;-69
2024/01/17 01:55:56;;;;;;;4.93;2.27;;;;;;;;;;5131929;27;20051;-70
2024/01/17 01:58:23;;;;;;;4.07;1.95;;;;;;;;;;5131777;27;20047;-69
2024/01/17 02:00:52;;;;;;;6.13;2.30;;;;;;;;;;5114522;27;20125;-70
2024/01/17 02:03:20;;;;;;;4.93;2.20;;;;;;;;;;5132709;27;20548;-71
2024/01/17 02:05:47;;;;;;;4.13;2.55;;;;;;;;;;5132493;27;20099;-69
2024/01/17 02:08:15;;;;;;;6.07;2.70;;;;;;;;;;5132284;27;20660;-71
2024/01/17 02:10:41;;;;;;;6.30;3.17;;;;;;;;;;5131928;27;20051;-71
2024/01/17 02:13:08;;;;;;;7.72;3.55;;;;;;;;;;5131823;27;20054;-70
2024/01/17 02:15:35;;;;;;;5.72;3.17;;;;;;;;;;5132017;27;20075;-71
2024/01/17 02:18:03;;;;;;;9.23;4.05;;;;;;;;;;5132223;27;20058;-70
2024/01/17 02:20:31;;;;;;;8.02;4.20;;;;;;;;;;5132585;27;20054;-70
2024/01/17 02:22:57;;;;;;;8.30;3.72;;;;;;;;;;5132183;27;20058;-69
2024/01/17 02:25:24;;;;;;;7.68;4.20;;;;;;;;;;5131861;27;20444;-70
2024/01/17 02:27:51;;;;;;;6.50;3.65;;;;;;;;;;5131809;27;20054;-70
2024/01/17 02:30:17;;;;;;;7.78;4.13;;;;;;;;;;5131769;27;20039;-69
2024/01/17 02:32:44;;;;;;;7.68;3.95;;;;;;;;;;5131979;27;20097;-69
2024/01/17 02:35:12;;;;;;;6.57;3.80;;;;;;;;;;5113642;27;20043;-69
2024/01/17 02:37:39;;;;;;;8.25;4.22;;;;;;;;;;5131626;27;20197;-70
2024/01/17 02:40:05;;;;;;;8.07;4.50;;;;;;;;;;5131537;27;20047;-69
2024/01/17 02:42:32;;;;;;;8.23;4.43;;;;;;;;;;5131907;27;20043;-70
2024/01/17 02:44:59;;;;;;;9.50;4.88;;;;;;;;;;5131851;27;20051;-69
2024/01/17 02:47:25;;;;;;;8.80;4.57;;;;;;;;;;5131482;27;20144;-69
2024/01/17 02:49:55;;;;;;;7.57;4.18;;;;;;;;;;5131698;27;20043;-70
2024/01/17 02:52:21;;;;;;;6.78;4.03;;;;;;;;;;5131494;27;20119;-70
2024/01/17 02:54:48;;;;;;;7.07;4.40;;;;;;;;;;5131146;27;20057;-70
2024/01/17 02:57:15;;;;;;;11.43;5.28;;;;;;;;;;5131330;27;20054;-70
2024/01/17 02:59:42;;;;;;;8.65;4.05;;;;;;;;;;5131463;27;20678;-69
2024/01/17 03:02:09;;;;;;;8.07;4.05;;;;;;;;;;5131141;27;20047;-69
2024/01/17 03:04:35;;;;;;;7.28;4.10;;;;;;;;;;5131256;27;20150;-69
2024/01/17 03:07:02;;;;;;;8.82;3.80;;;;;;;;;;5112714;27;20060;-69
2024/01/17 03:09:30;;;;;;;9.95;4.72;;;;;;;;;;5130126;27;20134;-69
2024/01/17 03:11:56;;;;;;;9.07;4.38;;;;;;;;;;5130809;27;20047;-69
2024/01/17 03:14:23;;;;;;;9.35;4.93;;;;;;;;;;5130892;27;20428;-69
2024/01/17 03:16:50;;;;;;;8.20;4.03;;;;;;;;;;5130560;27;20047;-69
2024/01/17 03:19:17;;;;;;;7.70;4.07;;;;;;;;;;5131204;27;20058;-70
2024/01/17 03:21:50;;;;;;;10.73;5.30;;;;;;;;;;5130773;27;20050;-71
2024/01/17 03:24:17;;;;;;;9.20;4.57;;;;;;;;;;5130774;27;20112;-70
2024/01/17 03:26:43;;;;;;;7.50;4.15;;;;;;;;;;5130967;27;20050;-69
2024/01/17 03:29:13;;;;;;;8.20;4.50;;;;;;;;;;5130660;27;20049;-69
2024/01/17 03:31:40;;;;;;;7.22;3.97;;;;;;;;;;5130876;27;20053;-69
2024/01/17 03:34:07;;;;;;;7.18;3.92;;;;;;;;;;5130432;27;20103;-70
2024/01/17 03:36:33;;;;;;;7.95;3.72;;;;;;;;;;5130376;27;20043;-70
2024/01/17 03:39:00;;;;;;;8.10;3.78;;;;;;;;;;5130144;27;20047;-69
2024/01/17 03:41:27;;;;;;;6.65;3.95;;;;;;;;;;5130677;27;20047;-69
2024/01/17 03:43:54;;;;;;;7.72;3.83;;;;;;;;;;5130841;27;20078;-71
2024/01/17 03:46:21;;;;;;;7.50;3.53;;;;;;;;;;5112307;27;20441;-70
2024/01/17 03:48:47;;;;;;;7.55;3.55;;;;;;;;;;5129967;27;20054;-70
2024/01/17 03:51:14;;;;;;;7.20;3.35;;;;;;;;;;5130678;27;20303;-71
2024/01/17 03:53:41;;;;;;;7.82;3.35;;;;;;;;;;5130025;27;20138;-71
2024/01/17 03:56:08;;;;;;;6.55;3.67;;;;;;;;;;5129701;27;20047;-71
2024/01/17 03:58:35;;;;;;;8.30;3.88;;;;;;;;;;5130274;27;20047;-70
2024/01/17 04:01:03;;;;;;;7.60;3.80;;;;;;;;;;5130171;27;20454;-70
2024/01/17 04:03:29;;;;;;;8.77;4.13;;;;;;;;;;5130439;27;20086;-70
2024/01/17 04:05:56;;;;;;;7.50;3.60;;;;;;;;;;5129946;27;20055;-70
2024/01/17 04:08:23;;;;;;;7.22;3.35;;;;;;;;;;5129824;27;20049;-69
2024/01/17 04:10:49;;;;;;;6.45;3.30;;;;;;;;;;5129440;27;20552;-69
2024/01/17 04:13:16;;;;;;;6.90;3.60;;;;;;;;;;5129847;27;20043;-70
2024/01/17 04:15:43;;;;;;;7.80;3.17;;;;;;;;;;5130214;27;20047;-70
2024/01/17 04:18:09;;;;;;;6.40;3.50;;;;;;;;;;5130012;27;20042;-70
2024/01/17 04:20:37;;;;;;;7.85;3.58;;;;;;;;;;5129198;27;20418;-70
2024/01/17 04:23:04;;;;;;;7.90;4.00;;;;;;;;;;5130016;27;20108;-70
2024/01/17 04:25:33;;;;;;;8.05;3.97;;;;;;;;;;5129554;27;20047;-70
2024/01/17 04:28:04;;;;;;;8.13;4.45;;;;;;;;;;5129856;27;20126;-70
2024/01/17 04:30:31;;;;;;;11.27;4.25;;;;;;;;;;5129862;27;20050;-69
2024/01/17 04:32:58;;;;;;;8.20;4.18;;;;;;;;;;5129644;27;20046;-69
2024/01/17 04:35:24;;;;;;;8.73;4.20;;;;;;;;;;5129533;27;20043;-69
2024/01/17 04:37:51;;;;;;;8.27;3.65;;;;;;;;;;5129424;28;20505;-69
2024/01/17 04:40:18;;;;;;;9.50;4.00;;;;;;;;;;5129517;28;20047;-69
2024/01/17 04:42:48;;;;;;;7.40;3.60;;;;;;;;;;5129989;28;20059;-69
2024/01/17 04:45:18;;;;;;;6.50;3.70;;;;;;;;;;5129831;28;20072;-69
2024/01/17 04:47:45;;;;;;;8.30;3.77;;;;;;;;;;5129405;28;20043;-69
2024/01/17 04:50:12;;;;;;;6.65;3.40;;;;;;;;;;5129845;28;20054;-71
2024/01/17 04:52:39;;;;;;;7.82;3.85;;;;;;;;;;5129818;28;20130;-68
2024/01/17 04:55:09;;;;;;;6.85;3.60;;;;;;;;;;5129041;28;20078;-70
2024/01/17 04:57:36;;;;;;;7.63;3.70;;;;;;;;;;5129349;28;20475;-69
2024/01/17 05:00:05;;;;;;;7.05;3.45;;;;;;;;;;5129541;28;20096;-69
2024/01/17 05:02:32;;;;;;;6.82;3.30;;;;;;;;;;5129422;28;20495;-69
2024/01/17 05:04:58;;;;;;;7.07;3.60;;;;;;;;;;5129546;28;20040;-69
2024/01/17 05:07:25;;;;;;;6.75;3.50;;;;;;;;;;5129482;28;20215;-69
2024/01/17 05:09:53;;;;;;;7.00;3.55;;;;;;;;;;5129172;28;20130;-69
2024/01/17 05:12:20;;;;;;;7.75;3.58;;;;;;;;;;5129264;28;20047;-70
2024/01/17 05:14:46;;;;;;;7.82;4.15;;;;;;;;;;5129171;28;20659;-71
2024/01/17 05:17:15;;;;;;;7.00;3.30;;;;;;;;;;5129439;28;20053;-71
2024/01/17 05:19:42;;;;;;;8.20;3.63;;;;;;;;;;5129555;28;20100;-69
2024/01/17 05:22:12;;;;;;;6.25;3.30;;;;;;;;;;5129484;28;20055;-71
2024/01/17 05:24:38;;;;;;;7.25;3.92;;;;;;;;;;5128868;28;20661;-70
2024/01/17 05:27:05;;;;;;;5.82;3.28;;;;;;;;;;5129449;28;20050;-70
2024/01/17 05:29:35;;;;;;;6.53;3.58;;;;;;;;;;5129218;28;20047;-70
2024/01/17 05:32:02;;;;;;;7.43;3.60;;;;;;;;;;5131744;27;20135;-70
2024/01/17 05:34:29;;;;;;;7.97;3.78;;;;;;;;;;5132798;27;20044;-70
2024/01/17 05:36:55;;;;;;;6.53;3.35;;;;;;;;;;5133187;27;20051;-70
2024/01/17 05:39:22;;;;;;;9.32;3.65;;;;;;;;;;5132440;27;20130;-70
2024/01/17 05:41:49;;;;;;;5.53;3.08;;;;;;;;;;5133152;27;20065;-69
2024/01/17 05:44:16;;;;;;;8.98;3.58;;;;;;;;;;5133212;27;20062;-69
2024/01/17 05:46:42;;;;;;;7.53;3.78;;;;;;;;;;5132942;27;20419;-70
2024/01/17 05:49:09;;;;;;;6.90;3.90;;;;;;;;;;5132540;27;20043;-70
2024/01/17 05:51:36;;;;;;;7.95;3.83;;;;;;;;;;5132735;27;20062;-70
2024/01/17 05:54:02;;;;;;;7.05;3.13;;;;;;;;;;5132458;27;20043;-70
2024/01/17 05:56:29;;;;;;;6.20;3.30;;;;;;;;;;5132777;27;20039;-70
2024/01/17 05:58:56;;;;;;;6.97;3.17;;;;;;;;;;5132432;27;20116;-69
2024/01/17 06:01:23;;;;;;;5.97;3.15;;;;;;;;;;5132975;27;20128;-70
2024/01/17 06:03:49;;;;;;;6.00;2.67;;;;;;;;;;5132474;27;20055;-69
2024/01/17 06:06:17;;;;;;;6.70;3.05;;;;;;;;;;5132613;27;20463;-70
2024/01/17 06:08:44;;;;;;;5.03;2.67;;;;;;;;;;5132016;27;20043;-70
2024/01/17 06:11:10;;;;;;;4.40;2.70;;;;;;;;;;5131632;27;20084;-70
2024/01/17 06:13:37;;;;;;;4.88;2.38;;;;;;;;;;5132125;27;20415;-69
2024/01/17 06:16:04;;;;;;;4.55;2.67;;;;;;;;;;5132564;27;20051;-70
2024/01/17 06:18:30;;;;;;;4.38;2.38;;;;;;;;;;5132100;27;20050;-70
2024/01/17 06:20:57;;;;;;;6.18;2.67;;;;;;;;;;5132175;27;20043;-69
2024/01/17 06:23:24;;;;;;;3.80;2.35;;;;;;;;;;5131983;27;20051;-69
2024/01/17 06:25:51;;;;;;;6.78;2.78;;;;;;;;;;5131924;27;20051;-69
2024/01/17 06:28:18;;;;;;;4.50;2.60;;;;;;;;;;5132307;27;20047;-69
2024/01/17 06:30:46;;;;;;;5.40;2.70;;;;;;;;;;5131834;27;20046;-69
2024/01/17 06:33:13;;;;;;;6.65;2.97;;;;;;;;;;5113782;27;20043;-69
2024/01/17 06:35:39;;;;;;;4.72;2.70;;;;;;;;;;5131985;27;20039;-69
2024/01/17 06:38:07;;;;;;;7.85;3.22;;;;;;;;;;5131651;27;20115;-69
2024/01/17 06:40:34;;;;;;;5.35;2.85;;;;;;;;;;5131673;27;20047;-69
2024/01/17 06:43:05;;;;;;;6.30;3.20;;;;;;;;;;5131029;27;20050;-69
2024/01/17 06:45:32;;;;;;;6.22;3.42;;;;;;;;;;5131872;27;20716;-70
2024/01/17 06:48:01;;;;;;;5.35;2.80;;;;;;;;;;5131610;27;20044;-69
2024/01/17 06:50:28;;;;;;;5.93;3.10;;;;;;;;;;5131608;27;20070;-69
2024/01/17 06:52:55;;;;;;;5.93;3.00;;;;;;;;;;5131359;27;20101;-69
2024/01/17 06:55:21;;;;;;;6.15;3.13;;;;;;;;;;5130956;27;20054;-69
2024/01/17 06:57:48;;;;;;;6.38;2.95;;;;;;;;;;5131583;27;20119;-69
2024/01/17 07:00:15;;;;;;;5.30;2.78;;;;;;;;;;5131592;27;20039;-69
2024/01/17 07:02:42;;;;;;;6.00;2.92;;;;;;;;;;5131269;27;20513;-69
2024/01/17 07:05:09;;;;;;;8.10;2.97;;;;;;;;;;5131241;27;20043;-69
2024/01/17 07:07:38;;;;;;;6.55;3.13;;;;;;;;;;5131602;27;20053;-69
2024/01/17 07:10:06;;;;;;;6.20;3.22;;;;;;;;;;5130355;27;20047;-69
2024/01/17 07:12:33;;;;;;;6.18;3.13;;;;;;;;;;5131230;27;20108;-71
2024/01/17 07:15:00;;;;;;;5.13;2.90;;;;;;;;;;5130845;27;20510;-69
2024/01/17 07:17:26;;;;;;;5.93;3.00;;;;;;;;;;5130862;27;20129;-71
2024/01/17 07:19:53;;;;;;;5.90;2.90;;;;;;;;;;5130743;27;20039;-70
2024/01/17 07:22:20;;;;;;;5.93;2.97;;;;;;;;;;5130951;27;20509;-70
2024/01/17 07:24:47;;;;;;;4.18;2.85;;;;;;;;;;5130984;27;20047;-71
2024/01/17 07:27:14;;;;;;;5.82;3.17;;;;;;;;;;5130586;27;20447;-71
2024/01/17 07:29:41;;;;;;;7.03;3.25;;;;;;;;;;5130794;27;20069;-70
2024/01/17 07:32:07;;;;;;;5.32;2.92;;;;;;;;;;5130350;27;20100;-71
2024/01/17 07:34:34;;;;;;;5.28;3.25;;;;;;;;;;5130658;27;20042;-71
2024/01/17 07:37:01;;;;;;;9.18;2.92;;;;;;;;;;5130837;27;20054;-71
2024/01/17 07:39:28;;;;;;;5.78;3.17;;;;;;;;;;5130356;27;20039;-70
2024/01/17 07:41:55;;;;;;;6.70;3.30;;;;;;;;;;5130661;27;20380;-70
2024/01/17 07:44:28;;;;;;;5.10;2.80;;;;;;;;;;5130271;27;20069;-70
2024/01/17 07:46:55;;;;;;;4.40;2.67;;;;;;;;;;5130399;27;20043;-70
2024/01/17 07:49:22;;;;;;;5.43;3.00;;;;;;;;;;5129930;27;20043;-70
2024/01/17 07:51:49;;;;;;;5.10;2.63;;;;;;;;;;5130504;27;20054;-70
2024/01/17 07:54:16;;;;;;;4.07;2.50;;;;;;;;;;5129722;27;20527;-70
2024/01/17 07:56:43;;;;;;;5.15;2.90;;;;;;;;;;5130122;27;20039;-70
2024/01/17 07:59:10;;;;;;;6.45;2.75;;;;;;;;;;5130011;27;20047;-70
2024/01/17 08:01:39;;;;;;;5.07;2.67;;;;;;;;;;5130631;27;20039;-70
2024/01/17 08:04:06;;;;;;;4.88;2.90;;;;;;;;;;5130322;27;20577;-71
2024/01/17 08:06:33;;;;;;;4.82;2.75;;;;;;;;;;5130107;27;20478;-70
2024/01/17 08:09:00;;;;;;;5.20;2.80;;;;;;;;;;5129494;27;20054;-72
2024/01/17 08:11:27;;;;;;;5.10;2.80;;;;;;;;;;5129647;27;20051;-71
2024/01/17 08:13:54;;;;;;;4.38;2.65;;;;;;;;;;5129914;27;20583;-68
2024/01/17 08:16:21;;;;;;;4.50;2.63;;;;;;;;;;5130070;27;20043;-68
2024/01/17 08:18:48;;;;;;;4.28;2.42;;;;;;;;;;5130036;27;20069;-70
2024/01/17 08:21:15;;;;;;;4.05;2.35;;;;;;;;;;5129945;27;20514;-71
2024/01/17 08:23:42;;;;;;;4.22;2.33;;;;;;;;;;5129728;27;20051;-70
2024/01/17 08:26:09;;;;;;;4.78;2.35;;;;;;;;;;5129429;27;20081;-70
2024/01/17 08:28:38;;;;;;;3.65;2.20;;;;;;;;;;5129623;27;20630;-70
2024/01/17 08:31:08;;;;;;;4.53;2.72;;;;;;;;;;5129888;27;20134;-69
2024/01/17 08:33:36;;;;;;;5.10;2.70;;;;;;;;;;5129743;27;20047;-69
2024/01/17 08:36:03;;;;;;;3.97;2.20;;;;;;;;;;5129385;27;20071;-70
2024/01/17 08:38:30;;;;;;;3.47;1.90;;;;;;;;;;5129710;27;20043;-69
2024/01/17 08:40:57;;;;;;;3.88;2.20;;;;;;;;;;5129179;28;20054;-70
2024/01/17 08:43:24;;;;;;;3.75;1.92;;;;;;;;;;5129773;28;20043;-70
2024/01/17 08:45:50;;;;;;;4.57;2.30;;;;;;;;;;5129406;28;20372;-69
2024/01/17 08:48:17;;;;;;;3.63;2.20;;;;;;;;;;5129507;28;20133;-70
2024/01/17 08:50:44;;;;;;;3.78;2.05;;;;;;;;;;5128970;28;20050;-70
2024/01/17 08:53:11;;;;;;;3.58;2.10;;;;;;;;;;5129826;28;20403;-69
2024/01/17 08:55:37;;;;;;;4.68;2.45;;;;;;;;;;5128969;28;20089;-70
2024/01/17 08:58:06;;;;;;;3.88;2.17;;;;;;;;;;5129814;28;20047;-70
2024/01/17 09:00:33;;;;;;;5.65;2.13;;;;;;;;;;5129349;28;20430;-70
2024/01/17 09:02:59;;;;;;;4.10;2.17;;;;;;;;;;5129569;28;20047;-70
2024/01/17 09:05:27;;;;;;;4.80;1.85;;;;;;;;;;5129300;27;20047;-69
2024/01/17 09:07:55;;;;;;;3.30;1.90;;;;;;;;;;5133053;27;20049;-71
2024/01/17 09:10:21;;;;;;;3.22;1.80;;;;;;;;;;5132792;27;20059;-70
2024/01/17 09:12:49;;;;;;;3.10;1.95;;;;;;;;;;5133346;27;20039;-70
2024/01/17 09:15:19;;;;;;;2.97;1.92;;;;;;;;;;5133528;27;20510;-69
2024/01/17 09:17:46;;;;;;;3.70;1.95;;;;;;;;;;5133707;27;20069;-70
2024/01/17 09:20:14;;;;;;;2.83;1.88;;;;;;;;;;5133477;27;20078;-70
2024/01/17 09:22:42;;;;;;;3.42;2.13;;;;;;;;;;5133083;27;20047;-70
2024/01/17 09:25:10;;;;;;;3.78;1.90;;;;;;;;;;5132622;27;20491;-70
2024/01/17 09:27:36;;;;;;;3.20;1.80;;;;;;;;;;5133154;27;20096;-70
2024/01/17 09:30:03;;;;;;;3.13;1.65;;;;;;;;;;5132728;27;20043;-70
2024/01/17 09:32:30;;;;;;;2.72;1.70;;;;;;;;;;5133426;27;20039;-70
2024/01/17 09:34:57;;;;;;;3.17;1.80;;;;;;;;;;5132737;27;20564;-70
2024/01/17 09:37:24;;;;;;;2.95;1.45;;;;;;;;;;5133184;27;20086;-70
2024/01/17 09:39:50;;;;;;;3.83;1.90;;;;;;;;;;5132613;27;20050;-70
2024/01/17 09:42:20;;;;;;;3.38;2.00;;;;;;;;;;5132879;27;20053;-70
2024/01/17 09:44:47;;;;;;;3.47;2.03;;;;;;;;;;5132890;27;20047;-69
2024/01/17 09:47:17;;;;;;;3.50;2.00;;;;;;;;;;5132957;27;20139;-69
2024/01/17 09:49:44;;;;;;;3.28;1.90;;;;;;;;;;5132581;27;20171;-69
2024/01/17 09:52:13;;;;;;;3.70;1.90;;;;;;;;;;5132895;27;20047;-69
2024/01/17 09:54:46;;;;;;;3.75;2.10;;;;;;;;;;5132700;27;20040;-69
2024/01/17 09:57:22;;;;;;;3.50;1.73;;;;;;;;;;5132814;27;20077;-69
2024/01/17 09:59:56;;;;;;;3.92;2.20;;;;;;;;;;5132576;27;20096;-69
2024/01/17 10:02:27;;;;;;;5.43;2.38;;;;;;;;;;5132322;27;20629;-69
2024/01/17 10:04:57;;;;;;;4.78;2.58;;;;;;;;;;5132665;27;20051;-69
2024/01/17 10:07:24;;;;;;;4.85;2.15;;;;;;;;;;5132365;27;20570;-70
2024/01/17 10:09:51;;;;;;;4.38;2.10;;;;;;;;;;5131611;27;20055;-69
2024/01/17 10:12:19;;;;;;;3.50;2.05;;;;;;;;;;5132339;27;20043;-70
2024/01/17 10:14:46;;;;;;;3.80;2.10;;;;;;;;;;5132572;27;20047;-69
2024/01/17 10:17:13;;;;;;;6.07;2.88;;;;;;;;;;5131415;27;20079;-70
2024/01/17 10:19:40;;;;;;;5.40;2.33;;;;;;;;;;5131418;27;20047;-70
2024/01/17 10:22:10;;;;;;;5.53;2.70;;;;;;;;;;5131946;27;20043;-70
2024/01/17 10:24:38;;;;;;;4.05;2.40;;;;;;;;;;5131523;27;20502;-70
2024/01/17 10:27:09;;;;;;;4.40;2.00;;;;;;;;;;5131286;27;20043;-69
2024/01/17 10:29:43;;;;;;;4.53;2.33;;;;;;;;;;5113932;27;20039;-70
2024/01/17 10:32:09;;;;;;;3.63;2.30;;;;;;;;;;5132325;27;20468;-70
2024/01/17 10:34:38;;;;;;;3.05;1.63;;;;;;;;;;5131988;27;20125;-69
2024/01/17 10:37:06;;;;;;;3.70;2.00;;;;;;;;;;5131679;27;20494;-70
2024/01/17 10:39:34;;;;;;;3.00;1.92;;;;;;;;;;5131604;27;20043;-70
2024/01/17 10:42:00;;;;;;;2.63;1.60;;;;;;;;;;5131503;27;20170;-70
2024/01/17 10:44:27;;;;;;;3.70;2.28;;;;;;;;;;5131469;27;20144;-70
2024/01/17 10:46:54;;;;;;;3.10;1.88;;;;;;;;;;5132035;27;20051;-70
2024/01/17 10:49:23;;;;;;;3.58;2.17;;;;;;;;;;5131682;27;20047;-70
2024/01/17 10:51:56;;;;;;;4.88;2.10;;;;;;;;;;5131811;27;20074;-70
2024/01/17 10:54:29;;;;;;;3.20;2.08;;;;;;;;;;5131401;27;20049;-70
2024/01/17 10:56:56;;;;;;;4.55;2.33;;;;;;;;;;5131231;27;20047;-69
2024/01/17 10:59:25;;;;;;;3.70;2.28;;;;;;;;;;5131483;27;20043;-70
2024/01/17 11:01:53;;;;;;;4.72;2.40;;;;;;;;;;5130950;27;20411;-71
2024/01/17 11:04:23;;;;;;;3.45;2.17;;;;;;;;;;5131437;27;20075;-71
2024/01/17 11:06:50;;;;;;;5.00;2.65;;;;;;;;;;5131383;27;20039;-70
2024/01/17 11:09:19;;;;;;;4.95;2.83;;;;;;;;;;5131054;27;20047;-71
2024/01/17 11:11:48;;;;;;;4.00;2.00;;;;;;;;;;5130949;27;20047;-71
2024/01/17 11:14:18;;;;;;;4.78;2.60;;;;;;;;;;5131483;27;20137;-71
2024/01/17 11:16:48;;;;;;;3.47;2.42;;;;;;;;;;5130835;27;20526;-70
2024/01/17 11:19:19;;;;;;;4.38;2.05;;;;;;;;;;5131084;27;20071;-71
2024/01/17 11:21:48;;;;;;;2.92;1.70;;;;;;;;;;5130769;27;20067;-70
2024/01/17 11:24:41;;;;;;;2.70;1.73;;;;;;;;;;5130860;27;20051;-70
2024/01/17 11:27:21;;;;;;;4.43;2.78;;;;;;;;;;5130892;27;20054;-70
2024/01/17 11:30:25;;;;;;;4.37;2.20;;;;;;;;;;5130425;27;20487;-71
2024/01/17 11:33:07;;;;;;;3.95;2.20;;;;;;;;;;5131005;27;20285;-71
2024/01/17 11:35:48;;;;;;;3.53;2.10;;;;;;;;;;5130894;27;20047;-71
2024/01/17 11:38:24;;;;;;;4.88;2.47;;;;;;;;;;5130797;27;20099;-70
2024/01/17 11:40:58;;;;;;;5.10;2.42;;;;;;;;;;5130175;27;20053;-70
2024/01/17 11:43:31;;;;;;;4.25;2.33;;;;;;;;;;5130430;27;20047;-70
2024/01/17 11:46:01;;;;;;;4.13;2.05;;;;;;;;;;5130473;27;20103;-70
2024/01/17 11:48:33;;;;;;;4.18;2.38;;;;;;;;;;5130670;27;20134;-70
2024/01/17 11:51:21;;;;;;;3.65;2.20;;;;;;;;;;5130411;27;20061;-70
2024/01/17 11:53:50;;;;;;;6.30;3.03;;;;;;;;;;5129961;27;20498;-70
2024/01/17 11:56:21;;;;;;;6.00;2.95;;;;;;;;;;5112271;27;20130;-70
2024/01/17 11:58:50;;;;;;;;;;;;;;;;;;5112717;27;20047;-70
2024/01/17 12:01:23;;;;;;;4.55;2.10;;;;;;;;;;5129918;27;20014;-70
2024/01/17 12:03:50;;;;;;;4.80;2.50;;;;;;;;;;5130096;27;20492;-70
2024/01/17 12:06:21;;;;;;;5.80;3.30;;;;;;;;;;5130267;27;20452;-70
2024/01/17 12:08:50;;;;;;;4.10;2.60;;;;;;;;;;5111875;27;20478;-70
2024/01/17 12:11:17;;;;;;;4.03;2.35;;;;;;;;;;5129604;27;20514;-69
2024/01/17 12:13:43;;;;;;;4.68;2.60;;;;;;;;;;5130160;27;20051;-70
2024/01/17 12:16:11;;;;;;;4.38;2.55;;;;;;;;;;5129749;27;20903;-70
2024/01/17 12:18:38;;;;;;;4.20;2.00;;;;;;;;;;5130124;27;20051;-69
2024/01/17 12:21:06;;;;;;;4.30;2.20;;;;;;;;;;5129815;27;20044;-69
2024/01/17 12:23:35;;;;;;;3.30;2.10;;;;;;;;;;5130245;27;20112;-71
2024/01/17 12:26:03;;;;;;;5.28;2.92;;;;;;;;;;5129200;27;20047;-70
2024/01/17 12:28:30;;;;;;;7.35;2.85;;;;;;;;;;5130362;27;20126;-70
2024/01/17 12:31:06;;;;;;;4.97;3.13;;;;;;;;;;5129683;27;20124;-70
2024/01/17 12:33:35;;;;;;;5.68;3.05;;;;;;;;;;5130116;27;20049;-70
2024/01/17 12:36:05;;;;;;;5.68;2.63;;;;;;;;;;5129228;27;20039;-69
2024/01/17 12:38:41;;;;;;;5.85;3.03;;;;;;;;;;5129782;28;20088;-70
2024/01/17 12:41:10;;;;;;;4.40;2.67;;;;;;;;;;5128566;27;20051;-70
2024/01/17 12:43:37;;;;;;;4.60;2.50;;;;;;;;;;5129641;28;20054;-69
2024/01/17 12:46:06;;;;;;;5.10;3.10;;;;;;;;;;5129683;28;20050;-69
2024/01/17 12:48:35;;;;;;;5.25;2.63;;;;;;;;;;5129775;28;20430;-69
2024/01/17 12:51:07;;;;;;;4.35;2.30;;;;;;;;;;5129228;28;20047;-69
2024/01/17 12:53:39;;;;;;;3.67;2.30;;;;;;;;;;5129409;28;20179;-69
2024/01/17 12:56:07;;;;;;;4.03;2.40;;;;;;;;;;5129200;28;20039;-69
2024/01/17 12:58:34;;;;;;;4.85;2.42;;;;;;;;;;5129785;28;20043;-69
2024/01/17 13:01:01;;;;;;;3.80;2.40;;;;;;;;;;5129143;28;20529;-71
2024/01/17 13:03:29;;;;;;;4.95;2.78;;;;;;;;;;5129442;28;20097;-70
2024/01/17 13:06:00;;;;;;;6.28;2.50;;;;;;;;;;5129430;28;20498;-69
2024/01/17 13:08:28;;;;;;;4.93;2.15;;;;;;;;;;5129355;28;20114;-70
2024/01/17 13:10:55;;;;;;;4.28;2.72;;;;;;;;;;5128715;28;20058;-70
2024/01/17 13:13:24;;;;;;;4.68;2.50;;;;;;;;;;5129383;28;20055;-69
2024/01/17 13:15:52;;;;;;;6.20;3.13;;;;;;;;;;5129268;28;20055;-70
2024/01/17 13:18:22;;;;;;;6.55;2.92;;;;;;;;;;5129335;28;20074;-70
2024/01/17 13:20:49;;;;;;;5.10;2.47;;;;;;;;;;5129257;28;20485;-70
2024/01/17 13:23:16;;;;;;;4.03;2.20;;;;;;;;;;5129498;28;20043;-69
2024/01/17 13:25:43;;;;;;;3.55;2.20;;;;;;;;;;5129101;28;20051;-70
2024/01/17 13:28:13;;;;;;;3.42;2.10;;;;;;;;;;5129535;28;20077;-70
2024/01/17 13:30:40;;;;;;;3.97;2.45;;;;;;;;;;5129293;28;20047;-70
2024/01/17 13:33:09;;;;;;;3.20;2.10;;;;;;;;;;5128939;28;20043;-70
2024/01/17 13:35:43;;;;;;;3.60;2.00;;;;;;;;;;5129054;28;20055;-71
2024/01/17 13:38:10;;;;;;;4.72;2.20;;;;;;;;;;5129133;28;20163;-71
2024/01/17 13:40:37;;;;;;;4.53;2.40;;;;;;;;;;5129087;28;20043;-71
2024/01/17 13:43:04;;;;;;;4.50;2.42;;;;;;;;;;5129188;28;20051;-70
2024/01/17 13:45:32;;;;;;;5.03;2.65;;;;;;;;;;5128992;27;20138;-71
2024/01/17 13:47:59;;;;;;;7.13;3.22;;;;;;;;;;5128963;28;20085;-70
2024/01/17 13:50:27;;;;;;;5.63;3.22;;;;;;;;;;5129281;28;20043;-70
2024/01/17 13:52:58;;;;;;;5.68;3.20;;;;;;;;;;5131056;27;20055;-70
2024/01/17 13:55:26;;;;;;;9.25;3.40;;;;;;;;;;5132516;27;20570;-71
2024/01/17 13:57:56;;;;;;;6.22;3.25;;;;;;;;;;5132676;27;20129;-71
2024/01/17 14:00:23;;;;;;;8.07;3.70;;;;;;;;;;5133070;27;20047;-70
2024/01/17 14:02:57;;;;;;;6.97;3.30;;;;;;;;;;5132494;27;20039;-70
2024/01/17 14:05:24;;;;;;;8.15;4.30;;;;;;;;;;5132742;27;20134;-70
2024/01/17 14:07:51;;;;;;;7.75;3.40;;;;;;;;;;5132309;27;20050;-70
2024/01/17 14:10:18;;;;;;;8.35;3.90;;;;;;;;;;5131695;27;20051;-71
2024/01/17 14:12:45;;;;;;;5.80;3.13;;;;;;;;;;5114167;27;20047;-71
2024/01/17 14:15:13;;;;;;;6.13;3.17;;;;;;;;;;5132394;27;20048;-70
2024/01/17 14:17:39;;;;;;;7.28;3.33;;;;;;;;;;5132238;27;20047;-70
2024/01/17 14:20:16;;;;;;;6.05;3.03;;;;;;;;;;5132277;27;20062;-70
2024/01/17 14:22:44;;;;;;;6.30;3.08;;;;;;;;;;5131870;27;20424;-69
2024/01/17 14:25:14;;;;;;;6.10;3.00;;;;;;;;;;5131494;27;20058;-70
2024/01/17 14:27:42;;;;;;;8.63;3.38;;;;;;;;;;5132034;27;20047;-69
2024/01/17 14:30:13;;;;;;;6.93;3.03;;;;;;;;;;5132155;27;20096;-69
2024/01/17 14:32:41;;;;;;;5.07;2.40;;;;;;;;;;5131603;27;20047;-71
2024/01/17 14:35:09;;;;;;;4.75;2.42;;;;;;;;;;5132075;27;20120;-70
2024/01/17 14:37:39;;;;;;;5.65;2.70;;;;;;;;;;5131803;27;20544;-70
2024/01/17 14:40:09;;;;;;;5.67;2.90;;;;;;;;;;5131463;27;20601;-70
2024/01/17 14:42:38;;;;;;;5.47;2.90;;;;;;;;;;5131757;27;20292;-70
2024/01/17 14:45:12;;;;;;;4.78;2.40;;;;;;;;;;5131788;27;20047;-70
2024/01/17 14:47:42;;;;;;;5.35;2.50;;;;;;;;;;5131492;27;20491;-70